createdAt,value
2022-12-08T00:01:46.738Z,13.15
2022-12-08T00:04:17.419Z,15.48
2022-12-08T00:07:02.983Z,18.13
2022-12-08T00:09:39.051Z,16.13
2022-12-08T00:12:11.830Z,17.58
2022-12-08T00:14:44.268Z,21.15
2022-12-08T00:17:16.638Z,19.00
2022-12-08T00:19:47.570Z,19.20
2022-12-08T00:22:20.803Z,18.70
2022-12-08T00:24:51.322Z,17.38
2022-12-08T00:27:21.943Z,17.83
2022-12-08T00:29:52.443Z,16.92
2022-12-08T00:32:23.057Z,16.77
2022-12-08T00:34:53.870Z,15.73
2022-12-08T00:37:27.131Z,17.65
2022-12-08T00:39:57.799Z,16.95
2022-12-08T00:42:28.388Z,14.48
2022-12-08T00:44:58.856Z,14.73
2022-12-08T00:47:29.544Z,17.23
2022-12-08T00:49:59.972Z,17.70
2022-12-08T00:52:33.303Z,15.25
2022-12-08T00:55:04.101Z,13.85
2022-12-08T00:57:35.250Z,14.95
2022-12-08T01:00:06.335Z,15.18
2022-12-08T01:02:38.102Z,14.48
2022-12-08T01:05:09.606Z,14.52
2022-12-08T01:07:42.979Z,13.25
2022-12-08T01:10:13.636Z,13.50
2022-12-08T01:12:44.474Z,19.08
2022-12-08T01:15:15.720Z,22.10
2022-12-08T01:17:46.420Z,20.58
2022-12-08T01:20:16.989Z,20.20
2022-12-08T01:22:50.278Z,18.02
2022-12-08T01:25:20.981Z,17.13
2022-12-08T01:27:51.545Z,20.45
2022-12-08T01:30:22.248Z,19.20
2022-12-08T01:32:52.856Z,18.92
2022-12-08T01:35:23.407Z,17.10
2022-12-08T01:37:56.664Z,16.10
2022-12-08T01:40:27.160Z,15.80
2022-12-08T01:42:57.910Z,16.08
2022-12-08T01:45:31.294Z,17.23
2022-12-08T01:48:06.391Z,16.98
2022-12-08T01:50:38.502Z,13.93
2022-12-08T01:53:15.268Z,15.38
2022-12-08T01:55:50.205Z,13.75
2022-12-08T01:58:26.299Z,10.88
2022-12-08T02:00:57.147Z,12.68
2022-12-08T02:03:32.756Z,12.57
2022-12-08T02:08:37.959Z,10.60
2022-12-08T02:11:09.044Z,10.55
2022-12-08T02:13:39.842Z,12.50
2022-12-08T02:16:18.227Z,12.77
2022-12-08T02:19:29.854Z,11.73
2022-12-08T02:21:59.712Z,10.57
2022-12-08T02:24:40.242Z,11.05
2022-12-08T02:27:35.871Z,10.07
2022-12-08T02:30:27.166Z,10.68
2022-12-08T02:33:34.554Z,11.55
2022-12-08T02:36:16.110Z,10.73
2022-12-08T02:38:54.912Z,10.52
2022-12-08T02:41:35.830Z,11.77
2022-12-08T02:44:14.184Z,12.38
2022-12-08T02:46:50.638Z,12.32
2022-12-08T02:49:21.290Z,11.82
2022-12-08T02:51:54.534Z,10.00
2022-12-08T02:54:25.062Z,10.05
2022-12-08T02:57:19.394Z,9.32
2022-12-08T03:00:05.537Z,10.55
2022-12-08T03:02:49.559Z,11.43
2022-12-08T03:05:40.944Z,12.57
2022-12-08T03:08:23.357Z,10.30
2022-12-08T03:11:01.061Z,10.32
2022-12-08T03:13:39.426Z,10.82
2022-12-08T03:16:13.060Z,9.13
2022-12-08T03:18:48.661Z,10.95
2022-12-08T03:23:57.154Z,9.93
2022-12-08T03:26:33.930Z,11.38
2022-12-08T03:29:04.704Z,9.38
2022-12-08T03:31:38.786Z,9.30
2022-12-08T03:34:11.011Z,8.73
2022-12-08T03:36:41.565Z,9.88
2022-12-08T03:39:15.028Z,11.40
2022-12-08T03:41:45.686Z,10.95
2022-12-08T03:44:16.914Z,10.40
2022-12-08T03:46:47.446Z,10.57
2022-12-08T03:49:18.029Z,11.18
2022-12-08T03:51:48.701Z,10.80
2022-12-08T03:54:22.029Z,10.65
2022-12-08T03:56:52.620Z,11.25
2022-12-08T03:59:23.399Z,10.90
2022-12-08T04:01:53.926Z,10.40
2022-12-08T04:04:24.584Z,11.00
2022-12-08T04:06:55.108Z,12.00
2022-12-08T04:09:28.478Z,14.13
2022-12-08T04:11:58.936Z,11.38
2022-12-08T04:14:29.583Z,11.98
2022-12-08T04:17:00.167Z,11.32
2022-12-08T04:19:31.038Z,8.63
2022-12-08T04:22:01.519Z,8.73
2022-12-08T04:24:34.927Z,7.82
2022-12-08T04:27:05.455Z,7.13
2022-12-08T04:29:36.118Z,7.97
2022-12-08T04:32:07.102Z,7.38
2022-12-08T04:34:37.786Z,8.90
2022-12-08T04:37:08.330Z,8.40
2022-12-08T04:39:41.610Z,9.73
2022-12-08T04:42:12.164Z,10.35
2022-12-08T04:44:42.959Z,10.35
2022-12-08T04:47:13.754Z,10.60
2022-12-08T04:49:44.775Z,10.77
2022-12-08T04:52:15.249Z,10.50
2022-12-08T04:54:48.499Z,10.75
2022-12-08T04:57:19.161Z,11.05
2022-12-08T04:59:49.754Z,12.20
2022-12-08T05:02:20.576Z,12.07
2022-12-08T05:04:51.275Z,10.05
2022-12-08T05:07:21.980Z,10.13
2022-12-08T05:09:55.305Z,10.18
2022-12-08T05:12:25.814Z,10.18
2022-12-08T05:14:56.459Z,10.73
2022-12-08T05:17:27.037Z,10.88
2022-12-08T05:19:57.605Z,10.10
2022-12-08T05:22:28.158Z,9.88
2022-12-08T05:25:01.469Z,9.25
2022-12-08T05:27:33.594Z,7.88
2022-12-08T05:30:04.387Z,9.68
2022-12-08T05:32:35.377Z,10.52
2022-12-08T05:35:06.108Z,8.05
2022-12-08T05:37:36.997Z,7.03
2022-12-08T05:40:11.602Z,6.38
2022-12-08T05:42:42.073Z,6.20
2022-12-08T05:45:13.869Z,6.32
2022-12-08T05:47:44.466Z,7.40
2022-12-08T05:50:15.268Z,8.50
2022-12-08T05:52:45.847Z,8.10
2022-12-08T05:55:19.240Z,9.18
2022-12-08T05:57:49.769Z,8.82
2022-12-08T06:00:21.720Z,7.47
2022-12-08T06:02:52.414Z,7.32
2022-12-08T06:05:23.200Z,9.20
2022-12-08T06:07:53.829Z,8.73
2022-12-08T06:10:26.986Z,8.98
2022-12-08T06:12:57.681Z,8.88
2022-12-08T06:15:28.415Z,9.35
2022-12-08T06:17:58.901Z,8.18
2022-12-08T06:20:29.497Z,8.55
2022-12-08T06:23:00.501Z,7.68
2022-12-08T06:25:33.820Z,9.30
2022-12-08T06:28:04.349Z,8.95
2022-12-08T06:30:35.721Z,9.88
2022-12-08T06:33:06.350Z,10.13
2022-12-08T06:35:37.212Z,10.10
2022-12-08T06:38:07.767Z,9.77
2022-12-08T06:40:40.994Z,10.05
2022-12-08T06:43:11.496Z,10.27
2022-12-08T06:45:44.564Z,10.32
2022-12-08T06:48:15.092Z,10.05
2022-12-08T06:50:45.712Z,11.07
2022-12-08T06:53:16.759Z,12.05
2022-12-08T06:56:01.842Z,12.98
2022-12-08T06:58:32.475Z,12.70
2022-12-08T07:01:08.544Z,13.20
2022-12-08T07:03:39.967Z,11.15
2022-12-08T07:06:11.064Z,10.95
2022-12-08T07:08:41.660Z,11.90
2022-12-08T07:11:19.764Z,9.80
2022-12-08T07:13:52.120Z,10.20
2022-12-08T07:16:23.108Z,9.98
2022-12-08T07:18:53.844Z,10.48
2022-12-08T07:21:24.587Z,10.48
2022-12-08T07:23:57.942Z,10.68
2022-12-08T07:26:31.474Z,12.98
2022-12-08T07:29:03.348Z,13.50
2022-12-08T07:31:34.178Z,14.20
2022-12-08T07:34:04.806Z,14.63
2022-12-08T07:36:35.574Z,14.25
2022-12-08T07:39:08.978Z,14.93
2022-12-08T07:41:42.278Z,13.50
2022-12-08T07:44:14.273Z,14.50
2022-12-08T07:46:45.267Z,13.57
2022-12-08T07:49:15.825Z,14.02
2022-12-08T07:51:46.563Z,15.93
2022-12-08T07:54:17.259Z,16.85
2022-12-08T07:56:50.537Z,16.50
2022-12-08T07:59:21.589Z,17.40
2022-12-08T08:02:11.702Z,14.13
2022-12-08T08:04:43.257Z,15.43
2022-12-08T08:07:14.291Z,17.27
2022-12-08T08:09:45.965Z,16.55
2022-12-08T08:12:34.700Z,15.98
2022-12-08T08:15:07.685Z,17.83
2022-12-08T08:17:39.888Z,17.38
2022-12-08T08:20:12.232Z,15.18
2022-12-08T08:22:43.103Z,16.20
2022-12-08T08:25:13.708Z,15.25
2022-12-08T08:27:47.055Z,16.10
2022-12-08T08:30:21.034Z,21.08
2022-12-08T08:32:52.788Z,19.52
2022-12-08T08:35:23.392Z,20.77
2022-12-08T08:37:54.349Z,19.95
2022-12-08T08:40:25.188Z,19.67
2022-12-08T08:42:58.693Z,18.38
2022-12-08T08:45:29.458Z,19.40
2022-12-08T08:48:00.214Z,17.88
2022-12-08T08:50:37.200Z,18.52
2022-12-08T08:53:08.432Z,19.60
2022-12-08T08:55:41.870Z,19.00
2022-12-08T08:58:15.278Z,24.52
2022-12-08T09:00:46.204Z,24.98
2022-12-08T09:03:17.026Z,25.85
2022-12-08T09:05:47.893Z,22.98
2022-12-08T09:08:19.039Z,21.13
2022-12-08T09:10:49.637Z,22.80
2022-12-08T09:13:22.886Z,26.35
2022-12-08T09:15:53.867Z,28.92
2022-12-08T09:18:25.017Z,28.08
2022-12-08T09:20:57.106Z,25.52
2022-12-08T09:23:33.701Z,29.13
2022-12-08T09:26:07.427Z,25.50
2022-12-08T09:28:40.809Z,26.98
2022-12-08T09:31:11.317Z,27.70
2022-12-08T09:33:41.882Z,27.60
2022-12-08T09:36:13.503Z,30.30
2022-12-08T09:38:44.657Z,33.75
2022-12-08T09:41:19.973Z,34.35
2022-12-08T09:44:07.291Z,32.38
2022-12-08T09:46:38.872Z,31.77
2022-12-08T09:49:18.250Z,31.17
2022-12-08T09:51:49.119Z,28.98
2022-12-08T09:54:24.534Z,32.05
2022-12-08T09:56:59.939Z,29.88
2022-12-08T09:59:35.541Z,32.53
2022-12-08T10:04:39.596Z,30.63
2022-12-08T10:07:19.481Z,25.33
2022-12-08T10:09:58.194Z,25.38
2022-12-08T10:12:34.492Z,22.05
2022-12-08T10:15:21.707Z,21.50
2022-12-08T10:17:54.940Z,21.35
2022-12-08T10:20:27.992Z,19.95
2022-12-08T10:23:09.987Z,19.65
2022-12-08T10:25:45.186Z,17.48
2022-12-08T10:28:16.369Z,15.85
2022-12-08T10:30:50.007Z,14.55
2022-12-08T10:33:24.109Z,14.57
2022-12-08T10:35:59.549Z,14.18
2022-12-08T10:38:33.803Z,14.50
2022-12-08T10:41:09.449Z,14.63
2022-12-08T10:43:45.176Z,15.52
2022-12-08T10:46:21.901Z,16.50
2022-12-08T10:48:55.129Z,17.10
2022-12-08T10:51:28.683Z,15.90
2022-12-08T10:53:59.885Z,16.63
2022-12-08T10:56:32.160Z,17.05
2022-12-08T10:59:16.845Z,17.30
2022-12-08T11:01:54.210Z,14.75
2022-12-08T11:04:27.066Z,14.63
2022-12-08T11:06:57.821Z,14.57
2022-12-08T11:09:39.631Z,13.77
2022-12-08T11:12:12.220Z,13.88
2022-12-08T11:17:32.023Z,16.65
2022-12-08T11:20:06.786Z,15.88
2022-12-08T11:22:42.182Z,16.15
2022-12-08T11:25:22.758Z,16.73
2022-12-08T11:27:56.303Z,16.95
2022-12-08T11:30:28.947Z,15.80
2022-12-08T11:33:06.677Z,16.73
2022-12-08T11:35:41.117Z,15.50
2022-12-08T11:38:23.629Z,16.80
2022-12-08T11:40:58.628Z,14.90
2022-12-08T11:43:39.359Z,17.92
2022-12-08T11:46:16.492Z,19.95
2022-12-08T11:48:54.987Z,20.50
2022-12-08T11:51:34.334Z,19.35
2022-12-08T11:54:18.714Z,19.85
2022-12-08T11:56:51.997Z,19.83
2022-12-08T11:59:29.581Z,19.48
2022-12-08T12:02:01.131Z,19.23
2022-12-08T12:04:41.258Z,17.85
2022-12-08T12:07:47.756Z,19.05
2022-12-08T12:10:41.834Z,19.95
2022-12-08T12:13:34.821Z,20.25
2022-12-08T12:16:44.517Z,18.77
2022-12-08T12:19:18.423Z,18.83
2022-12-08T12:21:55.192Z,18.10
2022-12-08T12:24:35.413Z,22.25
2022-12-08T12:27:18.352Z,19.20
2022-12-08T12:29:55.913Z,17.95
2022-12-08T12:32:27.877Z,17.63
2022-12-08T12:35:00.583Z,18.70
2022-12-08T12:37:42.903Z,20.50
2022-12-08T12:40:22.631Z,20.60
2022-12-08T12:43:27.158Z,19.50
2022-12-08T12:46:35.955Z,21.25
2022-12-08T12:49:36.723Z,18.88
2022-12-08T12:52:28.202Z,18.95
2022-12-08T12:55:27.364Z,19.05
2022-12-08T12:58:00.339Z,18.95
2022-12-08T13:00:31.426Z,17.55
2022-12-08T13:03:03.350Z,20.00
2022-12-08T13:05:50.980Z,18.40
2022-12-08T13:08:26.523Z,19.52
2022-12-08T13:11:05.710Z,19.45
2022-12-08T13:13:36.553Z,19.88
2022-12-08T13:16:19.445Z,22.00
2022-12-08T13:18:52.717Z,22.02
2022-12-08T13:21:26.566Z,22.45
2022-12-08T13:24:20.204Z,20.80
2022-12-08T13:27:14.030Z,21.73
2022-12-08T13:29:44.798Z,21.63
2022-12-08T13:33:22.719Z,19.90
2022-12-08T13:35:50.214Z,20.88
2022-12-08T13:38:24.033Z,22.33
2022-12-08T13:40:56.661Z,22.33
2022-12-08T13:43:55.519Z,22.77
2022-12-08T13:58:27.532Z,24.67
2022-12-08T14:04:12.447Z,25.40
2022-12-08T14:06:40.541Z,27.10
2022-12-08T14:09:16.291Z,25.38
2022-12-08T14:11:49.076Z,28.38
2022-12-08T14:14:54.011Z,26.65
2022-12-08T14:17:18.275Z,28.83
2022-12-08T14:19:57.876Z,26.33
2022-12-08T14:22:35.227Z,28.08
2022-12-08T14:25:07.522Z,29.88
2022-12-08T14:27:40.332Z,28.98
2022-12-08T14:30:22.328Z,30.88
2022-12-08T14:32:58.996Z,39.28
2022-12-08T14:35:31.871Z,37.72
2022-12-08T14:38:04.662Z,39.65
2022-12-08T14:40:38.101Z,37.97
2022-12-08T14:43:19.642Z,36.90
2022-12-08T14:45:55.686Z,34.50
2022-12-08T14:48:31.278Z,29.42
2022-12-08T14:53:43.330Z,34.95
2022-12-08T14:56:23.766Z,40.33
2022-12-08T14:59:05.651Z,42.40
2022-12-08T15:01:37.561Z,44.70
2022-12-08T15:04:19.124Z,45.08
2022-12-08T15:06:54.584Z,43.38
2022-12-08T15:09:34.264Z,43.72
2022-12-08T15:12:06.293Z,50.55
2022-12-08T15:14:39.466Z,48.50
2022-12-08T15:17:33.108Z,51.63
2022-12-08T15:20:08.600Z,49.72
2022-12-08T15:22:39.360Z,48.90
2022-12-08T15:25:15.960Z,48.67
2022-12-08T15:27:50.422Z,45.35
2022-12-08T15:30:22.237Z,43.50
2022-12-08T15:32:53.074Z,46.25
2022-12-08T15:35:26.319Z,46.35
2022-12-08T15:37:56.906Z,44.85
2022-12-08T15:40:27.555Z,49.95
2022-12-08T15:42:58.639Z,47.13
2022-12-08T15:45:34.001Z,51.20
2022-12-08T15:48:04.628Z,46.80
2022-12-08T15:50:37.928Z,48.60
2022-12-08T15:53:08.576Z,59.25
2022-12-08T15:55:39.826Z,59.22
2022-12-08T15:58:52.276Z,57.20
2022-12-08T16:01:01.558Z,55.05
2022-12-08T16:04:19.822Z,50.80
2022-12-08T16:09:24.489Z,55.33
2022-12-08T16:12:09.615Z,60.78
2022-12-08T16:17:35.077Z,76.95
2022-12-08T16:20:06.554Z,82.70
2022-12-08T16:23:03.640Z,80.78
2022-12-08T16:25:52.695Z,81.35
2022-12-08T16:28:53.009Z,67.75
2022-12-08T16:31:20.054Z,64.30
2022-12-08T16:33:53.363Z,66.30
2022-12-08T16:36:23.883Z,74.32
2022-12-08T16:38:57.093Z,87.28
2022-12-08T16:41:40.162Z,70.00
2022-12-08T16:44:10.859Z,75.55
2022-12-08T16:46:41.418Z,71.57
2022-12-08T16:49:12.758Z,73.00
2022-12-08T16:51:45.725Z,68.15
2022-12-08T16:54:18.906Z,65.20
2022-12-08T16:56:49.534Z,69.88
2022-12-08T16:59:20.088Z,66.00
2022-12-08T17:01:50.776Z,70.72
2022-12-08T17:04:37.428Z,80.35
2022-12-08T17:07:08.272Z,84.25
2022-12-08T17:09:41.477Z,79.45
2022-12-08T17:12:12.323Z,82.47
2022-12-08T17:14:42.943Z,78.03
2022-12-08T17:17:13.776Z,89.85
2022-12-08T17:19:44.365Z,107.65
2022-12-08T17:22:15.187Z,101.03
2022-12-08T17:24:48.347Z,81.50
2022-12-08T17:27:19.059Z,85.38
2022-12-08T17:29:49.808Z,89.03
2022-12-08T17:32:20.539Z,99.15
2022-12-08T17:34:51.451Z,99.95
2022-12-08T17:37:22.574Z,103.20
2022-12-08T17:39:55.984Z,111.63
2022-12-08T17:42:27.543Z,103.45
2022-12-08T17:44:58.479Z,96.30
2022-12-08T17:47:29.314Z,84.28
2022-12-08T17:50:00.995Z,100.15
2022-12-08T17:52:32.268Z,102.28
2022-12-08T17:55:05.401Z,105.70
2022-12-08T17:57:36.371Z,115.65
2022-12-08T18:00:08.826Z,119.93
2022-12-08T18:05:13.156Z,112.18
2022-12-08T18:07:43.927Z,106.55
2022-12-08T18:10:17.873Z,97.18
2022-12-08T18:12:49.109Z,68.50
2022-12-08T18:15:22.267Z,56.63
2022-12-08T18:17:53.709Z,50.58
2022-12-08T18:20:24.764Z,46.80
2022-12-08T18:22:55.652Z,46.95
2022-12-08T18:25:28.908Z,50.38
2022-12-08T18:27:59.599Z,47.08
2022-12-08T18:30:30.302Z,46.10
2022-12-08T18:33:01.097Z,46.80
2022-12-08T18:35:32.118Z,53.20
2022-12-08T18:38:03.129Z,52.45
2022-12-08T18:40:37.192Z,62.03
2022-12-08T18:43:07.874Z,62.33
2022-12-08T18:45:39.997Z,74.75
2022-12-08T18:48:12.052Z,71.43
2022-12-08T18:50:46.173Z,76.60
2022-12-08T18:53:17.011Z,81.47
2022-12-08T18:55:51.300Z,90.63
2022-12-08T18:58:22.477Z,82.78
2022-12-08T19:00:53.066Z,91.20
2022-12-08T19:03:23.786Z,91.32
2022-12-08T19:06:04.160Z,82.15
2022-12-08T19:08:35.531Z,91.93
2022-12-08T19:11:09.188Z,95.35
2022-12-08T19:13:39.820Z,93.60
2022-12-08T19:16:10.929Z,95.10
2022-12-08T19:18:41.714Z,89.35
2022-12-08T19:21:13.130Z,92.38
2022-12-08T19:23:44.509Z,86.85
2022-12-08T19:26:17.769Z,81.43
2022-12-08T19:28:48.400Z,80.82
2022-12-08T19:31:19.178Z,78.03
2022-12-08T19:33:49.925Z,77.10
2022-12-08T19:36:22.871Z,74.38
2022-12-08T19:39:05.968Z,79.60
2022-12-08T19:41:51.697Z,64.97
2022-12-08T19:44:39.877Z,64.43
2022-12-08T19:47:10.642Z,67.45
2022-12-08T19:49:41.566Z,69.43
2022-12-08T19:52:12.173Z,69.68
2022-12-08T19:54:43.128Z,77.07
2022-12-08T19:57:16.648Z,77.03
2022-12-08T19:59:50.489Z,73.07
2022-12-08T20:02:25.267Z,68.78
2022-12-08T20:04:56.200Z,65.28
2022-12-08T20:07:26.789Z,68.75
2022-12-08T20:09:57.567Z,62.67
2022-12-08T20:12:30.706Z,63.67
2022-12-08T20:15:01.270Z,62.70
2022-12-08T20:17:33.778Z,75.97
2022-12-08T20:20:09.969Z,73.18
2022-12-08T20:22:40.802Z,71.05
2022-12-08T20:25:13.381Z,67.55
2022-12-08T20:27:46.647Z,63.42
2022-12-08T20:30:17.700Z,63.88
2022-12-08T20:32:48.555Z,71.55
2022-12-08T20:35:20.296Z,55.88
2022-12-08T20:37:50.990Z,51.28
2022-12-08T20:40:21.730Z,39.33
2022-12-08T20:42:55.219Z,41.05
2022-12-08T20:45:26.000Z,36.72
2022-12-08T20:47:56.690Z,35.92
2022-12-08T20:50:27.612Z,30.85
2022-12-08T20:52:58.400Z,30.25
2022-12-08T20:55:29.299Z,28.80
2022-12-08T20:58:02.557Z,29.55
2022-12-08T21:00:33.377Z,33.70
2022-12-08T21:03:04.408Z,35.10
2022-12-08T21:05:36.728Z,31.73
2022-12-08T21:08:07.964Z,29.30
2022-12-08T21:10:43.656Z,28.20
2022-12-08T21:13:17.539Z,27.83
2022-12-08T21:15:49.009Z,24.35
2022-12-08T21:18:20.830Z,26.88
2022-12-08T21:20:52.269Z,30.77
2022-12-08T21:23:23.018Z,29.00
2022-12-08T21:25:53.667Z,25.77
2022-12-08T21:28:27.020Z,27.48
2022-12-08T21:30:57.917Z,28.10
2022-12-08T21:33:28.804Z,26.90
2022-12-08T21:36:08.202Z,29.17
2022-12-08T21:38:39.442Z,31.23
2022-12-08T21:41:12.518Z,31.67
2022-12-08T21:43:46.288Z,32.20
2022-12-08T21:46:21.658Z,31.30
2022-12-08T21:48:52.464Z,34.55
2022-12-08T21:51:23.980Z,35.00
2022-12-08T21:53:54.724Z,34.63
2022-12-08T21:56:25.790Z,32.83
2022-12-08T21:58:59.946Z,33.67
2022-12-08T22:01:30.560Z,32.17
2022-12-08T22:04:02.080Z,35.80
2022-12-08T22:06:33.331Z,39.72
2022-12-08T22:09:04.187Z,38.38
2022-12-08T22:11:35.051Z,38.50
2022-12-08T22:14:12.597Z,40.75
2022-12-08T22:16:45.934Z,40.38
2022-12-08T22:19:16.741Z,36.83
2022-12-08T22:21:47.718Z,39.35
2022-12-08T22:24:18.315Z,42.13
2022-12-08T22:26:49.118Z,40.67
2022-12-08T22:29:22.260Z,41.45
2022-12-08T22:31:52.909Z,36.67
2022-12-08T22:34:23.445Z,36.40
2022-12-08T22:36:54.297Z,41.92
2022-12-08T22:39:25.101Z,43.95
2022-12-08T22:41:55.847Z,41.63
2022-12-08T22:44:29.010Z,37.92
2022-12-08T22:47:00.036Z,38.85
2022-12-08T22:49:31.718Z,37.55
2022-12-08T22:52:02.477Z,42.50
2022-12-08T22:54:33.084Z,44.83
2022-12-08T22:57:04.009Z,43.10
2022-12-08T22:59:37.807Z,39.05
2022-12-08T23:02:08.384Z,40.63
2022-12-08T23:04:39.883Z,44.28
2022-12-08T23:07:10.642Z,66.93
2022-12-08T23:09:41.309Z,52.35
2022-12-08T23:12:12.198Z,49.08
2022-12-08T23:14:45.474Z,39.13
2022-12-08T23:17:16.336Z,44.88
2022-12-08T23:19:48.132Z,45.72
2022-12-08T23:22:19.595Z,48.35
2022-12-08T23:24:51.136Z,36.10
2022-12-08T23:27:22.890Z,39.13
2022-12-08T23:29:56.824Z,36.85
2022-12-08T23:32:27.818Z,39.28
2022-12-08T23:34:59.006Z,43.88
2022-12-08T23:37:31.473Z,54.25
2022-12-08T23:40:02.121Z,50.55
2022-12-08T23:42:33.466Z,47.95
2022-12-08T23:45:08.941Z,41.10
2022-12-08T23:47:39.665Z,29.55
2022-12-08T23:50:12.249Z,39.00
2022-12-08T23:52:43.071Z,32.75
2022-12-08T23:55:14.125Z,41.60
2022-12-08T23:57:44.789Z,32.70
